Time;durP1;ratioP1;P1;durP2;ratioP2;P2;SDS_P1;SDS_P2;PMS_P1;PMS_P2;Temp;Humidity;BMP_temperature;BMP_pressure;BME280_temperature;BME280_humidity;BME280_pressure;Samples;Min_cycle;Max_cycle;Signal;HPM_P1;HPM_P2
2023/05/15 00:01:55;;;;;;;59.28;54.70;;;;;;;;;;5003123;28;20353;-62
2023/05/15 00:04:20;;;;;;;52.67;48.65;;;;;;;;;;5002907;28;20050;-65
2023/05/15 00:06:45;;;;;;;49.53;45.58;;;;;;;;;;5003246;28;20030;-65
2023/05/15 00:09:11;;;;;;;96.50;88.95;;;;;;;;;;5002713;28;20037;-66
2023/05/15 00:11:36;;;;;;;126.43;116.65;;;;;;;;;;5002700;28;20121;-62
2023/05/15 00:14:01;;;;;;;120.20;111.22;;;;;;;;;;5005240;28;20030;-65
2023/05/15 00:16:27;;;;;;;160.65;146.73;;;;;;;;;;5044677;28;20025;-65
2023/05/15 00:18:52;;;;;;;177.40;161.38;;;;;;;;;;5045330;28;20028;-64
2023/05/15 00:21:17;;;;;;;133.00;122.28;;;;;;;;;;5045079;28;20020;-65
2023/05/15 00:23:43;;;;;;;122.63;113.93;;;;;;;;;;5027379;28;20358;-61
2023/05/15 00:26:08;;;;;;;111.75;103.20;;;;;;;;;;5045149;28;20017;-63
2023/05/15 00:28:33;;;;;;;111.38;102.75;;;;;;;;;;5048748;28;20063;-65
2023/05/15 00:30:59;;;;;;;87.18;80.28;;;;;;;;;;5048545;28;20013;-66
2023/05/15 00:33:24;;;;;;;29.15;23.15;;;;;;;;;;5049195;28;20033;-63
2023/05/15 00:35:50;;;;;;;41.60;37.90;;;;;;;;;;5048414;28;20464;-66
2023/05/15 00:38:15;;;;;;;24.02;21.42;;;;;;;;;;5048600;28;20024;-61
2023/05/15 00:40:41;;;;;;;20.92;12.38;;;;;;;;;;5049171;28;20017;-64
2023/05/15 00:43:07;;;;;;;23.55;11.80;;;;;;;;;;5048451;28;20074;-62
2023/05/15 00:45:32;;;;;;;28.55;13.43;;;;;;;;;;5048181;28;20411;-64
2023/05/15 00:47:59;;;;;;;21.88;11.98;;;;;;;;;;5012690;28;20089;-65
2023/05/15 00:50:25;;;;;;;21.88;11.77;;;;;;;;;;5048338;28;20111;-64
2023/05/15 00:52:50;;;;;;;17.60;11.23;;;;;;;;;;5048458;28;20108;-58
2023/05/15 00:55:15;;;;;;;22.88;12.60;;;;;;;;;;5048162;28;20111;-65
2023/05/15 00:57:42;;;;;;;21.30;12.48;;;;;;;;;;5048461;28;20411;-65
2023/05/15 01:00:09;;;;;;;23.60;13.23;;;;;;;;;;5048273;28;20063;-64
2023/05/15 01:02:35;;;;;;;25.13;13.95;;;;;;;;;;5030346;28;20052;-62
2023/05/15 01:05:00;;;;;;;22.15;13.02;;;;;;;;;;5048208;28;20024;-59
2023/05/15 01:07:26;;;;;;;24.00;12.98;;;;;;;;;;5048270;28;20024;-63
2023/05/15 01:09:52;;;;;;;22.88;14.00;;;;;;;;;;5048421;28;20024;-62
2023/05/15 01:12:18;;;;;;;27.48;13.70;;;;;;;;;;5047501;28;20056;-65
2023/05/15 01:14:44;;;;;;;24.15;13.65;;;;;;;;;;5046937;28;20028;-64
2023/05/15 01:17:09;;;;;;;29.58;15.15;;;;;;;;;;5047168;28;20021;-62
2023/05/15 01:19:35;;;;;;;23.95;13.35;;;;;;;;;;5046841;28;20476;-64
2023/05/15 01:22:19;;;;;;;21.25;14.35;;;;;;;;;;5047444;28;20052;-65
2023/05/15 01:24:47;;;;;;;25.55;13.93;;;;;;;;;;5046758;28;20021;-65
2023/05/15 01:27:16;;;;;;;21.17;13.50;;;;;;;;;;5047555;28;20021;-65
2023/05/15 01:29:50;;;;;;;31.60;15.80;;;;;;;;;;5047363;28;20029;-61
2023/05/15 01:32:18;;;;;;;26.33;14.15;;;;;;;;;;5046517;28;20044;-57
2023/05/15 01:34:53;;;;;;;36.58;16.35;;;;;;;;;;5046506;28;20095;-65
2023/05/15 01:37:21;;;;;;;31.08;15.35;;;;;;;;;;5046413;28;20028;-60
2023/05/15 01:39:47;;;;;;;26.00;15.18;;;;;;;;;;5046365;28;20025;-61
2023/05/15 01:42:14;;;;;;;23.98;15.32;;;;;;;;;;5047605;28;20035;-64
2023/05/15 01:44:42;;;;;;;27.73;15.60;;;;;;;;;;5046159;28;20028;-64
2023/05/15 01:47:12;;;;;;;26.83;14.30;;;;;;;;;;5046009;28;20472;-60
2023/05/15 01:49:38;;;;;;;27.60;15.93;;;;;;;;;;5045889;28;20107;-64
2023/05/15 01:52:07;;;;;;;29.88;17.02;;;;;;;;;;5046308;28;20410;-63
2023/05/15 01:54:33;;;;;;;35.38;17.08;;;;;;;;;;5046883;28;20102;-63
2023/05/15 01:56:58;;;;;;;30.35;16.02;;;;;;;;;;5046050;28;20472;-65
2023/05/15 01:59:24;;;;;;;29.63;17.58;;;;;;;;;;5045775;28;20025;-64
2023/05/15 02:01:50;;;;;;;25.05;16.40;;;;;;;;;;5045604;28;20064;-62
2023/05/15 02:04:15;;;;;;;34.17;17.70;;;;;;;;;;5045730;28;20055;-62
2023/05/15 02:06:41;;;;;;;33.40;17.73;;;;;;;;;;5045635;28;20021;-62
2023/05/15 02:09:06;;;;;;;28.38;17.52;;;;;;;;;;5045369;28;20017;-62
2023/05/15 02:11:32;;;;;;;28.35;17.05;;;;;;;;;;5045543;28;20082;-63
2023/05/15 02:13:57;;;;;;;23.45;16.38;;;;;;;;;;5045378;28;20063;-62
2023/05/15 02:16:23;;;;;;;31.15;17.35;;;;;;;;;;5045824;28;20075;-63
2023/05/15 02:18:48;;;;;;;27.75;17.95;;;;;;;;;;5046909;28;20286;-62
2023/05/15 02:21:14;;;;;;;31.23;17.30;;;;;;;;;;5046798;28;20099;-63
2023/05/15 02:23:39;;;;;;;29.45;18.02;;;;;;;;;;5045276;28;20028;-59
2023/05/15 02:26:23;;;;;;;27.23;16.30;;;;;;;;;;5045052;28;20516;-63
2023/05/15 02:28:48;;;;;;;26.65;16.88;;;;;;;;;;5044996;28;20104;-63
2023/05/15 02:31:18;;;;;;;28.37;17.97;;;;;;;;;;5045180;28;20097;-64
2023/05/15 02:33:53;;;;;;;28.83;17.92;;;;;;;;;;5044827;28;20254;-62
2023/05/15 02:36:25;;;;;;;29.48;16.10;;;;;;;;;;5045332;28;20017;-64
2023/05/15 02:38:52;;;;;;;26.55;16.30;;;;;;;;;;5046448;28;20083;-58
2023/05/15 02:41:18;;;;;;;28.35;16.13;;;;;;;;;;5045082;28;20032;-61
2023/05/15 02:43:44;;;;;;;23.05;15.02;;;;;;;;;;5044762;28;20086;-60
2023/05/15 02:46:10;;;;;;;26.80;16.33;;;;;;;;;;5045031;28;20021;-64
2023/05/15 02:48:38;;;;;;;25.73;16.38;;;;;;;;;;5045737;28;20033;-58
2023/05/15 02:51:05;;;;;;;32.45;16.75;;;;;;;;;;5046419;28;20028;-64
2023/05/15 02:53:31;;;;;;;24.27;15.48;;;;;;;;;;5045339;28;20021;-57
2023/05/15 02:55:56;;;;;;;26.90;16.10;;;;;;;;;;5045747;28;20021;-62
2023/05/15 02:58:22;;;;;;;26.23;15.77;;;;;;;;;;5044733;28;20362;-64
2023/05/15 03:00:47;;;;;;;26.77;16.92;;;;;;;;;;4992778;28;20069;-58
2023/05/15 03:03:12;;;;;;;31.75;15.63;;;;;;;;;;5044234;28;20048;-60
2023/05/15 03:05:37;;;;;;;25.50;16.17;;;;;;;;;;5044367;28;20064;-63
2023/05/15 03:08:04;;;;;;;27.88;16.70;;;;;;;;;;5046116;28;20027;-60
2023/05/15 03:10:29;;;;;;;27.95;16.13;;;;;;;;;;5045691;28;20044;-60
2023/05/15 03:12:57;;;;;;;28.73;15.63;;;;;;;;;;5045557;28;20059;-62
2023/05/15 03:15:22;;;;;;;33.58;16.98;;;;;;;;;;5046176;28;20067;-60
2023/05/15 03:17:47;;;;;;;24.58;15.65;;;;;;;;;;5045670;28;20063;-63
2023/05/15 03:20:13;;;;;;;23.52;15.63;;;;;;;;;;5046435;28;20512;-64
2023/05/15 03:22:38;;;;;;;26.98;16.08;;;;;;;;;;5046503;28;20036;-63
2023/05/15 03:25:04;;;;;;;26.30;16.30;;;;;;;;;;5046685;28;20021;-64
2023/05/15 03:27:29;;;;;;;28.30;14.75;;;;;;;;;;5046343;28;20166;-61
2023/05/15 03:29:54;;;;;;;29.40;16.30;;;;;;;;;;5045495;28;20024;-62
2023/05/15 03:32:20;;;;;;;27.60;15.85;;;;;;;;;;5045249;28;20029;-64
2023/05/15 03:34:45;;;;;;;25.23;16.13;;;;;;;;;;5045997;28;20086;-61
2023/05/15 03:37:10;;;;;;;26.40;15.20;;;;;;;;;;5044782;28;20031;-64
2023/05/15 03:39:36;;;;;;;26.48;16.00;;;;;;;;;;5010015;28;20025;-64
2023/05/15 03:42:01;;;;;;;24.92;15.75;;;;;;;;;;5045752;28;20029;-61
2023/05/15 03:44:26;;;;;;;28.95;15.95;;;;;;;;;;5045705;28;20032;-64
2023/05/15 03:46:52;;;;;;;24.10;15.32;;;;;;;;;;5010618;28;20075;-59
2023/05/15 03:49:17;;;;;;;24.83;14.68;;;;;;;;;;5045725;28;20080;-60
2023/05/15 03:51:42;;;;;;;24.60;15.38;;;;;;;;;;5045641;28;20414;-63
2023/05/15 03:54:08;;;;;;;24.35;15.85;;;;;;;;;;5045345;28;20032;-64
2023/05/15 03:56:33;;;;;;;28.90;17.00;;;;;;;;;;5045320;28;20029;-59
2023/05/15 03:58:58;;;;;;;22.70;15.50;;;;;;;;;;5027314;28;20036;-64
2023/05/15 04:01:24;;;;;;;24.77;15.97;;;;;;;;;;5045162;28;20049;-64
2023/05/15 04:03:49;;;;;;;24.67;15.95;;;;;;;;;;5049189;28;20276;-61
2023/05/15 04:06:15;;;;;;;27.60;16.45;;;;;;;;;;5049962;28;20385;-59
2023/05/15 04:08:40;;;;;;;27.13;16.60;;;;;;;;;;5049620;28;20458;-62
2023/05/15 04:11:05;;;;;;;61.72;43.63;;;;;;;;;;5049465;28;20337;-62
2023/05/15 04:13:31;;;;;;;28.85;15.63;;;;;;;;;;5049337;28;20052;-64
2023/05/15 04:15:57;;;;;;;28.15;16.70;;;;;;;;;;5048042;28;20790;-61
2023/05/15 04:18:22;;;;;;;30.10;17.00;;;;;;;;;;5048384;28;20017;-60
2023/05/15 04:20:47;;;;;;;31.20;17.48;;;;;;;;;;5048439;28;20028;-62
2023/05/15 04:23:13;;;;;;;28.27;17.20;;;;;;;;;;5048265;28;20025;-64
2023/05/15 04:25:41;;;;;;;26.40;17.60;;;;;;;;;;5048189;28;20052;-60
2023/05/15 04:28:06;;;;;;;29.77;18.37;;;;;;;;;;5049190;28;20028;-63
2023/05/15 04:30:32;;;;;;;33.17;18.20;;;;;;;;;;5048416;28;20372;-64
2023/05/15 04:32:57;;;;;;;26.75;17.80;;;;;;;;;;5048351;28;20029;-59
2023/05/15 04:35:22;;;;;;;36.03;19.17;;;;;;;;;;5048157;28;20032;-62
2023/05/15 04:37:47;;;;;;;27.88;17.27;;;;;;;;;;5048410;28;20075;-64
2023/05/15 04:40:15;;;;;;;31.67;18.73;;;;;;;;;;5048130;28;20040;-64
2023/05/15 04:42:40;;;;;;;34.42;20.00;;;;;;;;;;5048570;28;20029;-59
2023/05/15 04:45:06;;;;;;;29.20;18.63;;;;;;;;;;5048707;28;20361;-64
2023/05/15 04:47:31;;;;;;;29.05;18.50;;;;;;;;;;5048164;28;20029;-65
2023/05/15 04:49:57;;;;;;;32.60;17.95;;;;;;;;;;5048295;28;20449;-64
2023/05/15 04:52:22;;;;;;;26.02;16.45;;;;;;;;;;4996308;28;20035;-60
2023/05/15 04:54:49;;;;;;;29.73;18.23;;;;;;;;;;5048350;28;20021;-62
2023/05/15 04:57:15;;;;;;;32.67;17.85;;;;;;;;;;5043845;28;20268;-64
2023/05/15 04:59:40;;;;;;;27.83;18.67;;;;;;;;;;5043677;28;20803;-62
2023/05/15 05:02:05;;;;;;;32.97;17.95;;;;;;;;;;5043738;28;20107;-63
2023/05/15 05:04:31;;;;;;;30.63;17.95;;;;;;;;;;5043965;28;20464;-63
2023/05/15 05:06:56;;;;;;;30.27;18.80;;;;;;;;;;5043982;28;20025;-60
2023/05/15 05:09:21;;;;;;;31.88;18.90;;;;;;;;;;5043742;28;20021;-64
2023/05/15 05:11:47;;;;;;;31.10;17.65;;;;;;;;;;5044691;28;20037;-64
2023/05/15 05:14:13;;;;;;;33.03;18.00;;;;;;;;;;5043689;28;20074;-59
2023/05/15 05:16:38;;;;;;;27.55;18.60;;;;;;;;;;5045382;28;20028;-61
2023/05/15 05:19:04;;;;;;;27.70;17.92;;;;;;;;;;5044643;28;20025;-64
2023/05/15 05:21:29;;;;;;;28.25;18.38;;;;;;;;;;5044982;28;20040;-61
2023/05/15 05:23:55;;;;;;;34.60;19.15;;;;;;;;;;5044593;28;20350;-63
2023/05/15 05:26:20;;;;;;;32.42;18.00;;;;;;;;;;5043281;28;20126;-58
2023/05/15 05:28:46;;;;;;;31.42;17.05;;;;;;;;;;5043646;28;20060;-63
2023/05/15 05:31:11;;;;;;;29.63;18.17;;;;;;;;;;5043448;28;20808;-61
2023/05/15 05:33:36;;;;;;;34.08;17.65;;;;;;;;;;5043078;28;20039;-64
2023/05/15 05:36:02;;;;;;;25.83;16.17;;;;;;;;;;5043426;28;20021;-64
2023/05/15 05:38:27;;;;;;;28.52;18.45;;;;;;;;;;5043970;28;20498;-60
2023/05/15 05:40:52;;;;;;;75.82;54.25;;;;;;;;;;5044995;28;20029;-62
2023/05/15 05:43:19;;;;;;;109.70;97.85;;;;;;;;;;5055588;28;20040;-64
2023/05/15 05:45:45;;;;;;;37.83;31.15;;;;;;;;;;5061497;28;20021;-64
2023/05/15 05:48:10;;;;;;;40.97;36.05;;;;;;;;;;5061252;28;20375;-58
2023/05/15 05:50:35;;;;;;;36.92;25.00;;;;;;;;;;5048495;28;20039;-62
2023/05/15 05:53:00;;;;;;;43.40;38.67;;;;;;;;;;5048242;28;20029;-62
2023/05/15 05:55:26;;;;;;;43.03;37.97;;;;;;;;;;5010624;28;20687;-65
2023/05/15 05:57:51;;;;;;;37.90;32.15;;;;;;;;;;5060644;28;20114;-62
2023/05/15 06:00:17;;;;;;;44.55;38.05;;;;;;;;;;5048572;28;20406;-63
2023/05/15 06:02:42;;;;;;;36.60;26.38;;;;;;;;;;4997832;28;20052;-61
2023/05/15 06:05:08;;;;;;;32.55;28.52;;;;;;;;;;5050528;28;20111;-63
2023/05/15 06:07:34;;;;;;;37.00;19.00;;;;;;;;;;5047666;28;20057;-60
2023/05/15 06:09:59;;;;;;;30.60;19.33;;;;;;;;;;5057367;28;20108;-56
2023/05/15 06:12:24;;;;;;;30.20;19.10;;;;;;;;;;5058226;28;20509;-63
2023/05/15 06:14:50;;;;;;;35.38;19.17;;;;;;;;;;5047284;28;20024;-65
2023/05/15 06:17:15;;;;;;;36.13;20.13;;;;;;;;;;5045994;28;20024;-63
2023/05/15 06:19:40;;;;;;;32.53;17.77;;;;;;;;;;5045504;28;20051;-60
2023/05/15 06:22:06;;;;;;;37.42;17.67;;;;;;;;;;5011482;28;20124;-60
2023/05/15 06:24:31;;;;;;;33.43;17.03;;;;;;;;;;5059413;28;20873;-57
2023/05/15 06:26:56;;;;;;;36.47;19.20;;;;;;;;;;5044186;28;20262;-59
2023/05/15 06:29:22;;;;;;;36.25;18.27;;;;;;;;;;5048343;28;20043;-62
2023/05/15 06:31:47;;;;;;;36.95;19.10;;;;;;;;;;5053965;28;20451;-56
2023/05/15 06:34:12;;;;;;;34.95;19.10;;;;;;;;;;5056498;28;20021;-61
2023/05/15 06:36:38;;;;;;;35.03;19.13;;;;;;;;;;5059224;28;20524;-61
2023/05/15 06:39:04;;;;;;;39.17;19.45;;;;;;;;;;5052185;28;20025;-59
2023/05/15 06:41:29;;;;;;;41.08;19.55;;;;;;;;;;5050788;28;20074;-58
2023/05/15 06:43:54;;;;;;;38.60;18.88;;;;;;;;;;5047152;28;20032;-61
2023/05/15 06:46:20;;;;;;;32.55;18.10;;;;;;;;;;5051338;28;20074;-61
2023/05/15 06:48:46;;;;;;;37.17;18.88;;;;;;;;;;5058197;28;20492;-55
2023/05/15 06:51:11;;;;;;;40.65;17.38;;;;;;;;;;5051126;28;20025;-55
2023/05/15 06:53:36;;;;;;;36.17;19.42;;;;;;;;;;5051400;28;20028;-60
2023/05/15 06:56:02;;;;;;;32.72;18.40;;;;;;;;;;5042642;28;20037;-62
2023/05/15 06:58:27;;;;;;;34.92;23.35;;;;;;;;;;4973778;28;20472;-60
2023/05/15 07:00:52;;;;;;;36.30;25.23;;;;;;;;;;5047030;28;20041;-58
2023/05/15 07:03:18;;;;;;;46.65;41.75;;;;;;;;;;5047321;28;20047;-61
2023/05/15 07:05:44;;;;;;;57.05;51.70;;;;;;;;;;5061207;28;20063;-60
2023/05/15 07:08:09;;;;;;;215.02;185.10;;;;;;;;;;5045478;28;20465;-60
2023/05/15 07:10:35;;;;;;;363.50;257.30;;;;;;;;;;5017608;28;20020;-57
2023/05/15 07:13:00;;;;;;;372.02;259.95;;;;;;;;;;5050002;28;20393;-59
2023/05/15 07:15:25;;;;;;;422.50;262.77;;;;;;;;;;5047521;28;20037;-60
2023/05/15 07:17:51;;;;;;;278.88;224.10;;;;;;;;;;5054824;28;20017;-61
2023/05/15 07:20:16;;;;;;;356.83;248.45;;;;;;;;;;5050228;28;20443;-59
2023/05/15 07:22:41;;;;;;;316.92;240.52;;;;;;;;;;5047096;28;20032;-62
2023/05/15 07:25:07;;;;;;;408.13;253.40;;;;;;;;;;5052952;28;20036;-60
2023/05/15 07:27:32;;;;;;;401.85;250.55;;;;;;;;;;5047378;28;20218;-60
2023/05/15 07:29:58;;;;;;;375.50;260.15;;;;;;;;;;5028272;28;20053;-59
2023/05/15 07:32:23;;;;;;;113.70;103.97;;;;;;;;;;5059016;28;20059;-60
2023/05/15 07:34:48;;;;;;;80.05;73.18;;;;;;;;;;5046524;28;20021;-60
2023/05/15 07:37:13;;;;;;;232.07;207.23;;;;;;;;;;5047610;28;20035;-60
2023/05/15 07:39:39;;;;;;;222.82;200.57;;;;;;;;;;5044037;28;20465;-62
2023/05/15 07:42:04;;;;;;;226.25;204.25;;;;;;;;;;5047860;28;20287;-59
2023/05/15 07:44:30;;;;;;;275.98;245.23;;;;;;;;;;5045174;28;20423;-55
2023/05/15 07:46:55;;;;;;;239.27;216.13;;;;;;;;;;5042365;28;20424;-56
2023/05/15 07:49:21;;;;;;;265.85;238.43;;;;;;;;;;5044304;28;20368;-61
2023/05/15 07:51:46;;;;;;;277.50;247.50;;;;;;;;;;5046938;28;20347;-59
2023/05/15 07:54:11;;;;;;;293.48;261.20;;;;;;;;;;5052585;28;20032;-63
2023/05/15 07:56:37;;;;;;;365.70;272.83;;;;;;;;;;5048997;28;20472;-64
2023/05/15 07:59:02;;;;;;;329.98;280.48;;;;;;;;;;5052282;28;20473;-63
2023/05/15 08:01:28;;;;;;;255.20;231.13;;;;;;;;;;5049184;28;20477;-60
2023/05/15 08:03:53;;;;;;;177.40;163.38;;;;;;;;;;5060448;28;20287;-59
2023/05/15 08:06:18;;;;;;;261.83;238.18;;;;;;;;;;5058765;28;20460;-61
2023/05/15 08:08:43;;;;;;;271.17;248.38;;;;;;;;;;5050836;28;20028;-62
2023/05/15 08:11:09;;;;;;;238.40;218.55;;;;;;;;;;5044307;28;20096;-58
2023/05/15 08:13:34;;;;;;;335.77;303.70;;;;;;;;;;5044656;28;20496;-59
2023/05/15 08:15:59;;;;;;;293.00;268.87;;;;;;;;;;5050181;28;20072;-62
2023/05/15 08:18:25;;;;;;;264.20;244.40;;;;;;;;;;5051014;28;20250;-61
2023/05/15 08:20:51;;;;;;;286.35;264.23;;;;;;;;;;5006932;28;20440;-62
2023/05/15 08:23:16;;;;;;;253.35;235.25;;;;;;;;;;5028598;28;20028;-59
2023/05/15 08:25:41;;;;;;;158.68;148.07;;;;;;;;;;5052458;28;20028;-61
2023/05/15 08:28:07;;;;;;;227.53;211.67;;;;;;;;;;5046872;28;20024;-62
2023/05/15 08:30:32;;;;;;;168.90;157.57;;;;;;;;;;5047420;28;20737;-58
2023/05/15 08:32:57;;;;;;;93.93;87.78;;;;;;;;;;5060915;28;20431;-60
2023/05/15 08:35:22;;;;;;;59.58;54.67;;;;;;;;;;5048545;28;20021;-59
2023/05/15 08:37:48;;;;;;;120.38;112.35;;;;;;;;;;5047966;28;20464;-58
2023/05/15 08:40:13;;;;;;;204.57;189.25;;;;;;;;;;5051155;28;20423;-60
2023/05/15 08:42:47;;;;;;;162.00;150.23;;;;;;;;;;5055096;28;20461;-62
2023/05/15 08:45:13;;;;;;;62.97;56.95;;;;;;;;;;5062252;28;20020;-59
2023/05/15 08:47:39;;;;;;;42.80;36.33;;;;;;;;;;5034487;28;20025;-55
2023/05/15 08:50:11;;;;;;;33.78;27.45;;;;;;;;;;5063717;28;20024;-60
2023/05/15 08:52:37;;;;;;;51.85;47.70;;;;;;;;;;5051856;28;20226;-57
2023/05/15 08:55:02;;;;;;;46.33;42.33;;;;;;;;;;5054010;28;20043;-63
2023/05/15 08:57:28;;;;;;;18.25;11.75;;;;;;;;;;5052404;28;20375;-65
2023/05/15 08:59:54;;;;;;;17.67;11.05;;;;;;;;;;5049243;28;20559;-62
2023/05/15 09:02:19;;;;;;;19.65;11.57;;;;;;;;;;5052730;28;20057;-62
2023/05/15 09:04:45;;;;;;;26.98;12.55;;;;;;;;;;5055439;28;20483;-62
2023/05/15 09:07:10;;;;;;;16.17;8.93;;;;;;;;;;5028429;28;20490;-62
2023/05/15 09:09:36;;;;;;;15.88;9.98;;;;;;;;;;5050818;28;20048;-62
2023/05/15 09:12:02;;;;;;;15.07;8.55;;;;;;;;;;5057696;28;20136;-63
2023/05/15 09:14:28;;;;;;;16.42;7.53;;;;;;;;;;5051136;28;20040;-62
2023/05/15 09:16:53;;;;;;;13.55;10.88;;;;;;;;;;5052214;28;20029;-62
2023/05/15 09:19:20;;;;;;;18.77;13.48;;;;;;;;;;5062329;28;20013;-59
2023/05/15 09:21:45;;;;;;;21.75;12.57;;;;;;;;;;5054629;28;20032;-59
2023/05/15 09:24:24;;;;;;;64.13;59.42;;;;;;;;;;5059993;28;20155;-61
2023/05/15 09:27:02;;;;;;;16.70;6.30;;;;;;;;;;5052678;28;20025;-58
2023/05/15 09:29:29;;;;;;;71.40;66.80;;;;;;;;;;5051511;28;20116;-64
2023/05/15 09:31:54;;;;;;;86.45;78.80;;;;;;;;;;5054791;28;20032;-58
2023/05/15 09:34:27;;;;;;;199.55;182.57;;;;;;;;;;5060134;28;20027;-63
2023/05/15 09:36:53;;;;;;;259.52;219.50;;;;;;;;;;5055921;28;20032;-65
2023/05/15 09:39:21;;;;;;;69.07;45.27;;;;;;;;;;5051416;28;20016;-59
2023/05/15 09:41:46;;;;;;;10.40;5.35;;;;;;;;;;5054572;28;20345;-59
2023/05/15 09:44:19;;;;;;;6.32;4.28;;;;;;;;;;5051940;28;20076;-63
2023/05/15 09:46:45;;;;;;;5.32;3.60;;;;;;;;;;5049911;28;20024;-57
2023/05/15 09:49:11;;;;;;;4.95;3.70;;;;;;;;;;5031336;28;20029;-61
2023/05/15 09:51:36;;;;;;;6.15;3.83;;;;;;;;;;5047062;28;20040;-58
2023/05/15 09:54:02;;;;;;;6.03;3.58;;;;;;;;;;5052077;28;20029;-62
2023/05/15 09:56:27;;;;;;;6.13;3.38;;;;;;;;;;5030349;28;20036;-58
2023/05/15 09:58:53;;;;;;;16.02;4.60;;;;;;;;;;5051871;28;20040;-59
2023/05/15 10:01:19;;;;;;;5.57;4.05;;;;;;;;;;5041804;28;20076;-61
2023/05/15 10:03:55;;;;;;;11.05;4.18;;;;;;;;;;5048277;28;20035;-62
2023/05/15 10:06:20;;;;;;;5.82;3.65;;;;;;;;;;5053819;28;20017;-58
2023/05/15 10:08:53;;;;;;;8.43;3.60;;;;;;;;;;5054768;28;20040;-61
2023/05/15 10:11:18;;;;;;;5.07;3.17;;;;;;;;;;5048562;28;20258;-62
2023/05/15 10:13:44;;;;;;;9.57;3.72;;;;;;;;;;5051699;28;20025;-60
2023/05/15 10:16:10;;;;;;;7.85;3.28;;;;;;;;;;5050029;28;20021;-62
2023/05/15 10:18:37;;;;;;;7.72;4.15;;;;;;;;;;5021182;28;20872;-61
2023/05/15 10:21:03;;;;;;;4.75;3.70;;;;;;;;;;5056476;28;20032;-61
2023/05/15 10:23:29;;;;;;;4.50;3.50;;;;;;;;;;5053027;28;20029;-59
2023/05/15 10:26:01;;;;;;;5.07;3.38;;;;;;;;;;5047466;28;20468;-67
2023/05/15 10:28:27;;;;;;;8.98;3.60;;;;;;;;;;5057121;28;20020;-65
2023/05/15 10:30:53;;;;;;;9.38;3.83;;;;;;;;;;5048172;28;20029;-64
2023/05/15 10:33:19;;;;;;;12.85;5.03;;;;;;;;;;5050248;28;20024;-64
2023/05/15 10:35:45;;;;;;;34.88;32.22;;;;;;;;;;5046739;28;20051;-62
2023/05/15 10:38:11;;;;;;;233.40;219.02;;;;;;;;;;5049242;28;20115;-60
2023/05/15 10:40:38;;;;;;;200.05;112.85;;;;;;;;;;5052004;28;21186;-61
2023/05/15 10:43:03;;;;;;;3.33;3.03;;;;;;;;;;5054957;28;20036;-64
2023/05/15 10:45:29;;;;;;;6.10;2.95;;;;;;;;;;5053297;28;20020;-63
2023/05/15 10:47:55;;;;;;;12.95;3.28;;;;;;;;;;5050779;28;20131;-63
2023/05/15 10:50:20;;;;;;;4.20;2.55;;;;;;;;;;5050313;28;20467;-62
2023/05/15 10:52:49;;;;;;;10.93;3.00;;;;;;;;;;5054752;28;20017;-62
2023/05/15 10:55:26;;;;;;;6.00;2.58;;;;;;;;;;5046866;28;20044;-62
2023/05/15 10:57:53;;;;;;;6.25;2.95;;;;;;;;;;5051883;28;20079;-64
2023/05/15 11:00:22;;;;;;;5.35;3.42;;;;;;;;;;5034350;28;20025;-62
2023/05/15 11:02:47;;;;;;;4.28;2.60;;;;;;;;;;5051955;28;20087;-59
2023/05/15 11:05:13;;;;;;;6.57;2.50;;;;;;;;;;5048721;28;20122;-62
2023/05/15 11:07:38;;;;;;;4.97;2.15;;;;;;;;;;5052601;28;20008;-60
2023/05/15 11:10:24;;;;;;;4.75;2.58;;;;;;;;;;5055608;28;20032;-61
2023/05/15 11:13:00;;;;;;;3.45;2.28;;;;;;;;;;4978207;28;20038;-60
2023/05/15 11:15:25;;;;;;;8.27;3.00;;;;;;;;;;4964095;28;20295;-63
2023/05/15 11:18:03;;;;;;;3.92;2.65;;;;;;;;;;4968209;28;20325;-61
2023/05/15 11:20:38;;;;;;;9.70;2.60;;;;;;;;;;4973647;28;20530;-62
2023/05/15 11:23:04;;;;;;;10.13;2.45;;;;;;;;;;4968213;28;20049;-63
2023/05/15 11:25:32;;;;;;;17.02;2.72;;;;;;;;;;4972259;28;20522;-63
2023/05/15 11:27:58;;;;;;;18.27;16.52;;;;;;;;;;4981120;28;20034;-64
2023/05/15 11:30:36;;;;;;;3.15;2.05;;;;;;;;;;4974924;28;20050;-59
2023/05/15 11:33:09;;;;;;;51.35;44.88;;;;;;;;;;4971927;28;20038;-63
2023/05/15 11:35:45;;;;;;;19.10;8.35;;;;;;;;;;4964880;28;20418;-63
2023/05/15 11:38:14;;;;;;;72.80;23.38;;;;;;;;;;4973153;28;20023;-62
2023/05/15 11:41:01;;;;;;;137.30;70.15;;;;;;;;;;4969938;28;20014;-63
2023/05/15 11:43:27;;;;;;;211.43;97.80;;;;;;;;;;4974251;28;20034;-65
2023/05/15 11:45:54;;;;;;;10.90;8.35;;;;;;;;;;4970986;28;20387;-61
2023/05/15 11:48:20;;;;;;;305.45;285.35;;;;;;;;;;4972494;28;20030;-62
2023/05/15 11:50:46;;;;;;;439.65;400.52;;;;;;;;;;5040342;28;20466;-62
2023/05/15 11:53:12;;;;;;;415.17;379.45;;;;;;;;;;5046322;28;20071;-60
2023/05/15 11:55:39;;;;;;;485.30;433.60;;;;;;;;;;5049471;28;20029;-59
2023/05/15 11:58:04;;;;;;;451.80;413.70;;;;;;;;;;5056512;28;20029;-59
2023/05/15 12:00:30;;;;;;;467.80;422.60;;;;;;;;;;5053765;28;20027;-60
2023/05/15 12:02:55;;;;;;;468.10;419.95;;;;;;;;;;5044534;28;20071;-57
2023/05/15 12:05:21;;;;;;;457.98;412.33;;;;;;;;;;5051054;28;20052;-59
2023/05/15 12:07:46;;;;;;;456.95;409.67;;;;;;;;;;5053358;28;20021;-60
2023/05/15 12:10:12;;;;;;;315.73;291.55;;;;;;;;;;5058561;28;20055;-60
2023/05/15 12:12:41;;;;;;;408.25;374.77;;;;;;;;;;5047666;28;20039;-58
2023/05/15 12:15:10;;;;;;;423.58;386.98;;;;;;;;;;5044409;28;20021;-59
2023/05/15 12:17:35;;;;;;;;;;;;;;;;;;5049253;28;20028;-57
2023/05/15 12:20:00;;;;;;;437.02;389.90;;;;;;;;;;5057085;28;19962;-58
2023/05/15 12:22:26;;;;;;;462.98;412.77;;;;;;;;;;5052151;28;20037;-61
2023/05/15 12:24:51;;;;;;;478.20;409.70;;;;;;;;;;5057733;28;20081;-58
2023/05/15 12:27:16;;;;;;;441.48;396.83;;;;;;;;;;5060796;28;20123;-57
2023/05/15 12:29:42;;;;;;;568.38;414.40;;;;;;;;;;5047630;28;20023;-60
2023/05/15 12:32:07;;;;;;;595.42;401.08;;;;;;;;;;5052000;28;20235;-58
2023/05/15 12:34:33;;;;;;;642.33;411.48;;;;;;;;;;5041318;28;20108;-60
2023/05/15 12:36:58;;;;;;;591.47;422.83;;;;;;;;;;5067694;28;20021;-58
2023/05/15 12:39:25;;;;;;;575.35;380.13;;;;;;;;;;5059507;28;20448;-60
2023/05/15 12:41:53;;;;;;;168.35;155.73;;;;;;;;;;5062798;28;20024;-59
2023/05/15 12:44:18;;;;;;;644.78;411.70;;;;;;;;;;5056544;28;20048;-62
2023/05/15 12:46:44;;;;;;;660.20;415.90;;;;;;;;;;5058749;28;20024;-59
2023/05/15 12:49:10;;;;;;;692.38;401.80;;;;;;;;;;5055125;28;20076;-57
2023/05/15 12:51:41;;;;;;;346.92;235.40;;;;;;;;;;5050868;28;20568;-58
2023/05/15 12:54:15;;;;;;;640.58;410.42;;;;;;;;;;5047679;28;20032;-55
2023/05/15 12:56:40;;;;;;;617.88;411.08;;;;;;;;;;5054141;28;20098;-59
2023/05/15 12:59:05;;;;;;;648.22;419.63;;;;;;;;;;5058000;28;20028;-58
2023/05/15 13:01:31;;;;;;;649.10;417.45;;;;;;;;;;5048191;28;20073;-58
2023/05/15 13:03:57;;;;;;;626.15;394.80;;;;;;;;;;5049046;28;20035;-57
2023/05/15 13:06:22;;;;;;;313.25;251.73;;;;;;;;;;5047001;28;20021;-55
2023/05/15 13:08:48;;;;;;;536.20;392.10;;;;;;;;;;5057585;28;20090;-58
2023/05/15 13:11:13;;;;;;;624.90;417.42;;;;;;;;;;5034300;28;20032;-57
2023/05/15 13:13:46;;;;;;;625.27;405.83;;;;;;;;;;5052965;28;20697;-59
2023/05/15 13:16:24;;;;;;;626.70;419.08;;;;;;;;;;5050619;28;20294;-64
2023/05/15 13:18:50;;;;;;;668.97;403.45;;;;;;;;;;5052826;28;20028;-61
2023/05/15 13:21:15;;;;;;;661.08;413.60;;;;;;;;;;5057910;28;20461;-59
2023/05/15 13:23:41;;;;;;;666.72;412.45;;;;;;;;;;5049652;28;20567;-61
2023/05/15 13:26:06;;;;;;;661.53;428.90;;;;;;;;;;5048191;28;20453;-56
2023/05/15 13:28:32;;;;;;;654.00;434.17;;;;;;;;;;5051290;28;20704;-58
2023/05/15 13:30:57;;;;;;;655.72;442.77;;;;;;;;;;5052395;28;20029;-58
2023/05/15 13:33:24;;;;;;;652.78;446.50;;;;;;;;;;5049697;28;20480;-59
2023/05/15 13:35:49;;;;;;;674.33;444.42;;;;;;;;;;5045683;28;20569;-58
2023/05/15 13:38:15;;;;;;;657.72;445.63;;;;;;;;;;5053888;28;20032;-62
2023/05/15 13:40:40;;;;;;;648.97;444.30;;;;;;;;;;5054631;28;20032;-60
2023/05/15 13:43:05;;;;;;;697.63;433.83;;;;;;;;;;5045746;28;20037;-60
2023/05/15 13:45:30;;;;;;;701.28;441.88;;;;;;;;;;5054739;28;20105;-61
2023/05/15 13:47:56;;;;;;;725.50;432.40;;;;;;;;;;5047379;28;20398;-60
2023/05/15 13:50:21;;;;;;;717.63;441.52;;;;;;;;;;5050240;28;20472;-56
2023/05/15 13:52:46;;;;;;;716.75;434.35;;;;;;;;;;5052443;28;20575;-61
2023/05/15 13:55:12;;;;;;;216.55;202.68;;;;;;;;;;5049072;28;20120;-62
2023/05/15 13:57:38;;;;;;;426.42;389.40;;;;;;;;;;5007506;28;20073;-57
2023/05/15 14:00:06;;;;;;;408.63;375.05;;;;;;;;;;5045867;28;20044;-59
2023/05/15 14:02:31;;;;;;;293.55;270.08;;;;;;;;;;5047452;28;20699;-58
2023/05/15 14:04:56;;;;;;;505.88;462.60;;;;;;;;;;5053423;28;20023;-62
2023/05/15 14:07:22;;;;;;;512.53;465.27;;;;;;;;;;5063592;28;20093;-63
2023/05/15 14:09:48;;;;;;;525.58;473.67;;;;;;;;;;5047940;28;20254;-60